sensor_id;sensor_type;location;lat;lon;timestamp;pressure;altitude;pressure_sealevel;temperature;humidity
47218;BME280;47282;53.362;-2.222;2022-08-04T00:00:30;100434.95;;;14.49;55.00
47218;BME280;47282;53.362;-2.222;2022-08-04T00:03:12;100429.97;;;14.45;55.10
47218;BME280;47282;53.362;-2.222;2022-08-04T00:05:52;100428.53;;;14.38;55.21
47218;BME280;47282;53.362;-2.222;2022-08-04T00:08:28;100430.55;;;14.33;55.37
47218;BME280;47282;53.362;-2.222;2022-08-04T00:11:00;100432.18;;;14.54;55.49
47218;BME280;47282;53.362;-2.222;2022-08-04T00:13:31;100431.01;;;14.48;55.60
47218;BME280;47282;53.362;-2.222;2022-08-04T00:16:04;100426.57;;;14.17;55.67
47218;BME280;47282;53.362;-2.222;2022-08-04T00:18:38;100428.04;;;14.13;55.76
47218;BME280;47282;53.362;-2.222;2022-08-04T00:21:11;100426.97;;;14.09;55.78
47218;BME280;47282;53.362;-2.222;2022-08-04T00:23:42;100423.49;;;14.04;55.88
47218;BME280;47282;53.362;-2.222;2022-08-04T00:26:11;100421.94;;;14.00;55.94
47218;BME280;47282;53.362;-2.222;2022-08-04T00:28:39;100421.55;;;13.96;56.07
47218;BME280;47282;53.362;-2.222;2022-08-04T00:31:09;100422.47;;;14.18;56.10
47218;BME280;47282;53.362;-2.222;2022-08-04T00:33:38;100420.18;;;14.14;56.17
47218;BME280;47282;53.362;-2.222;2022-08-04T00:36:06;100421.89;;;14.07;56.32
47218;BME280;47282;53.362;-2.222;2022-08-04T00:38:35;100417.47;;;14.03;56.33
47218;BME280;47282;53.362;-2.222;2022-08-04T00:41:11;100416.14;;;13.96;56.44
47218;BME280;47282;53.362;-2.222;2022-08-04T00:43:55;100416.79;;;13.91;56.50
47218;BME280;47282;53.362;-2.222;2022-08-04T00:46:45;100417.47;;;13.56;56.63
47218;BME280;47282;53.362;-2.222;2022-08-04T00:49:47;100419.57;;;13.75;56.77
47218;BME280;47282;53.362;-2.222;2022-08-04T00:52:31;100417.99;;;13.70;56.83
47218;BME280;47282;53.362;-2.222;2022-08-04T00:55:11;100417.38;;;13.63;56.94
47218;BME280;47282;53.362;-2.222;2022-08-04T00:58:00;100417.85;;;13.59;57.06
47218;BME280;47282;53.362;-2.222;2022-08-04T01:00:36;100417.65;;;13.58;57.19
47218;BME280;47282;53.362;-2.222;2022-08-04T01:03:17;100415.95;;;13.60;57.27
47218;BME280;47282;53.362;-2.222;2022-08-04T01:06:04;100412.78;;;13.61;57.26
47218;BME280;47282;53.362;-2.222;2022-08-04T01:08:58;100409.95;;;13.81;57.31
47218;BME280;47282;53.362;-2.222;2022-08-04T01:11:43;100407.10;;;13.30;57.35
47218;BME280;47282;53.362;-2.222;2022-08-04T01:14:26;100405.43;;;13.53;57.47
47218;BME280;47282;53.362;-2.222;2022-08-04T01:17:00;100403.40;;;13.52;57.53
47218;BME280;47282;53.362;-2.222;2022-08-04T01:19:52;100403.32;;;13.51;57.61
47218;BME280;47282;53.362;-2.222;2022-08-04T01:22:45;100399.76;;;13.52;57.77
47218;BME280;47282;53.362;-2.222;2022-08-04T01:25:49;100399.04;;;13.29;57.73
47218;BME280;47282;53.362;-2.222;2022-08-04T01:28:28;100392.51;;;13.54;57.75
47218;BME280;47282;53.362;-2.222;2022-08-04T01:31:05;100395.51;;;13.51;57.85
47218;BME280;47282;53.362;-2.222;2022-08-04T01:33:37;100400.17;;;13.45;57.89
47218;BME280;47282;53.362;-2.222;2022-08-04T01:36:09;100402.79;;;13.38;58.07
47218;BME280;47282;53.362;-2.222;2022-08-04T01:38:39;100404.45;;;13.33;58.19
47218;BME280;47282;53.362;-2.222;2022-08-04T01:41:13;100408.00;;;13.27;58.32
47218;BME280;47282;53.362;-2.222;2022-08-04T01:43:42;100407.44;;;13.24;58.44
47218;BME280;47282;53.362;-2.222;2022-08-04T01:46:13;100406.92;;;13.25;58.55
47218;BME280;47282;53.362;-2.222;2022-08-04T01:48:45;100405.77;;;13.27;58.52
47218;BME280;47282;53.362;-2.222;2022-08-04T01:51:13;100409.17;;;13.50;58.61
47218;BME280;47282;53.362;-2.222;2022-08-04T01:53:42;100411.09;;;13.53;58.70
47218;BME280;47282;53.362;-2.222;2022-08-04T01:56:11;100410.44;;;13.35;58.73
47218;BME280;47282;53.362;-2.222;2022-08-04T01:58:40;100415.23;;;13.38;58.86
47218;BME280;47282;53.362;-2.222;2022-08-04T02:01:10;100414.86;;;13.44;58.88
47218;BME280;47282;53.362;-2.222;2022-08-04T02:03:40;100411.34;;;13.52;58.92
47218;BME280;47282;53.362;-2.222;2022-08-04T02:06:17;100412.21;;;13.32;58.87
47218;BME280;47282;53.362;-2.222;2022-08-04T02:08:55;100416.41;;;13.64;58.86
47218;BME280;47282;53.362;-2.222;2022-08-04T02:11:28;100414.00;;;13.72;59.02
47218;BME280;47282;53.362;-2.222;2022-08-04T02:14:05;100412.10;;;13.82;58.95
47218;BME280;47282;53.362;-2.222;2022-08-04T02:16:43;100412.02;;;13.92;58.92
47218;BME280;47282;53.362;-2.222;2022-08-04T02:19:19;100411.23;;;14.02;58.97
47218;BME280;47282;53.362;-2.222;2022-08-04T02:21:57;100409.78;;;14.11;58.93
47218;BME280;47282;53.362;-2.222;2022-08-04T02:24:31;100409.40;;;13.93;59.05
47218;BME280;47282;53.362;-2.222;2022-08-04T02:27:02;100410.61;;;14.27;59.01
47218;BME280;47282;53.362;-2.222;2022-08-04T02:29:38;100410.71;;;14.07;58.99
47218;BME280;47282;53.362;-2.222;2022-08-04T02:32:12;100411.95;;;14.41;58.96
47218;BME280;47282;53.362;-2.222;2022-08-04T02:34:46;100415.62;;;14.21;59.00
47218;BME280;47282;53.362;-2.222;2022-08-04T02:37:16;100413.51;;;14.52;59.06
47218;BME280;47282;53.362;-2.222;2022-08-04T02:39:44;100415.32;;;14.31;59.05
47218;BME280;47282;53.362;-2.222;2022-08-04T02:42:14;100417.07;;;14.34;59.05
47218;BME280;47282;53.362;-2.222;2022-08-04T02:44:49;100416.29;;;14.14;59.05
47218;BME280;47282;53.362;-2.222;2022-08-04T02:47:19;100416.34;;;14.64;59.09
47218;BME280;47282;53.362;-2.222;2022-08-04T02:49:50;100422.16;;;14.38;59.17
47218;BME280;47282;53.362;-2.222;2022-08-04T02:52:19;100420.60;;;14.40;59.17
47218;BME280;47282;53.362;-2.222;2022-08-04T02:54:50;100414.50;;;14.67;59.15
47218;BME280;47282;53.362;-2.222;2022-08-04T02:57:23;100415.24;;;14.38;59.25
47218;BME280;47282;53.362;-2.222;2022-08-04T03:00:05;100412.64;;;14.39;59.24
47218;BME280;47282;53.362;-2.222;2022-08-04T03:02:41;100412.63;;;14.39;59.30
47218;BME280;47282;53.362;-2.222;2022-08-04T03:05:17;100417.45;;;14.65;59.34
47218;BME280;47282;53.362;-2.222;2022-08-04T03:08:06;100417.10;;;14.63;59.42
47218;BME280;47282;53.362;-2.222;2022-08-04T03:11:04;100417.59;;;14.15;59.41
47218;BME280;47282;53.362;-2.222;2022-08-04T03:14:21;100417.56;;;14.36;59.51
47218;BME280;47282;53.362;-2.222;2022-08-04T03:17:28;100420.26;;;14.38;59.61
47218;BME280;47282;53.362;-2.222;2022-08-04T03:20:27;100418.44;;;14.69;59.61
47218;BME280;47282;53.362;-2.222;2022-08-04T03:23:35;100421.82;;;14.43;59.70
47218;BME280;47282;53.362;-2.222;2022-08-04T03:27:11;100426.35;;;14.25;59.79
47218;BME280;47282;53.362;-2.222;2022-08-04T03:30:03;100429.52;;;14.31;59.72
47218;BME280;47282;53.362;-2.222;2022-08-04T03:33:19;100431.17;;;14.36;59.76
47218;BME280;47282;53.362;-2.222;2022-08-04T03:36:45;100436.82;;;14.43;59.86
47218;BME280;47282;53.362;-2.222;2022-08-04T03:40:26;100442.93;;;14.49;59.86
47218;BME280;47282;53.362;-2.222;2022-08-04T03:43:31;100444.04;;;14.54;59.84
47218;BME280;47282;53.362;-2.222;2022-08-04T03:46:46;100447.85;;;14.50;59.73
47218;BME280;47282;53.362;-2.222;2022-08-04T03:49:44;100449.23;;;14.39;59.80
47218;BME280;47282;53.362;-2.222;2022-08-04T03:52:39;100447.90;;;14.58;59.94
47218;BME280;47282;53.362;-2.222;2022-08-04T03:55:23;100448.49;;;14.55;60.05
47218;BME280;47282;53.362;-2.222;2022-08-04T03:58:11;100449.67;;;14.53;60.06
47218;BME280;47282;53.362;-2.222;2022-08-04T04:00:54;100453.37;;;14.50;60.05
47218;BME280;47282;53.362;-2.222;2022-08-04T04:03:47;100453.24;;;14.45;60.15
47218;BME280;47282;53.362;-2.222;2022-08-04T04:06:39;100456.03;;;14.22;60.39
47218;BME280;47282;53.362;-2.222;2022-08-04T04:10:11;100460.21;;;14.49;60.54
47218;BME280;47282;53.362;-2.222;2022-08-04T04:13:08;100460.48;;;14.30;60.59
47218;BME280;47282;53.362;-2.222;2022-08-04T04:15:54;100462.37;;;14.82;60.65
47218;BME280;47282;53.362;-2.222;2022-08-04T04:18:42;100464.22;;;14.55;60.55
47218;BME280;47282;53.362;-2.222;2022-08-04T04:21:28;100465.26;;;14.45;60.59
47218;BME280;47282;53.362;-2.222;2022-08-04T04:24:19;100466.02;;;14.34;60.75
47218;BME280;47282;53.362;-2.222;2022-08-04T04:26:58;100466.32;;;14.25;60.92
47218;BME280;47282;53.362;-2.222;2022-08-04T04:29:47;100469.01;;;14.00;61.03
47218;BME280;47282;53.362;-2.222;2022-08-04T04:32:22;100474.29;;;14.22;61.10
47218;BME280;47282;53.362;-2.222;2022-08-04T04:35:08;100471.59;;;14.51;61.16
47218;BME280;47282;53.362;-2.222;2022-08-04T04:40:46;100468.18;;;14.10;61.20
47218;BME280;47282;53.362;-2.222;2022-08-04T04:43:44;100476.28;;;14.60;61.21
47218;BME280;47282;53.362;-2.222;2022-08-04T04:46:27;100480.02;;;14.37;61.29
47218;BME280;47282;53.362;-2.222;2022-08-04T04:49:02;100480.51;;;14.41;61.30
47218;BME280;47282;53.362;-2.222;2022-08-04T04:51:38;100483.36;;;14.46;61.33
47218;BME280;47282;53.362;-2.222;2022-08-04T04:54:17;100485.35;;;14.51;61.28
47218;BME280;47282;53.362;-2.222;2022-08-04T04:56:56;100487.53;;;14.35;61.33
47218;BME280;47282;53.362;-2.222;2022-08-04T04:59:31;100485.34;;;14.60;61.33
47218;BME280;47282;53.362;-2.222;2022-08-04T05:03:41;100489.66;;;14.55;61.45
47218;BME280;47282;53.362;-2.222;2022-08-04T05:06:26;100495.02;;;14.33;61.64
47218;BME280;47282;53.362;-2.222;2022-08-04T05:09:11;100497.30;;;14.30;62.00
47218;BME280;47282;53.362;-2.222;2022-08-04T05:11:58;100495.20;;;14.54;62.26
47218;BME280;47282;53.362;-2.222;2022-08-04T05:14:37;100507.19;;;14.81;62.42
47218;BME280;47282;53.362;-2.222;2022-08-04T05:17:16;100513.02;;;14.38;62.57
47218;BME280;47282;53.362;-2.222;2022-08-04T05:19:54;100517.61;;;14.71;62.56
47218;BME280;47282;53.362;-2.222;2022-08-04T05:22:28;100522.30;;;14.81;62.57
47218;BME280;47282;53.362;-2.222;2022-08-04T05:25:04;100522.14;;;14.70;62.49
47218;BME280;47282;53.362;-2.222;2022-08-04T05:27:37;100524.34;;;15.09;62.41
47218;BME280;47282;53.362;-2.222;2022-08-04T05:30:08;100524.84;;;15.08;62.18
47218;BME280;47282;53.362;-2.222;2022-08-04T05:32:42;100528.18;;;15.49;61.97
47218;BME280;47282;53.362;-2.222;2022-08-04T05:35:19;100530.51;;;15.45;61.72
47218;BME280;47282;53.362;-2.222;2022-08-04T05:37:49;100531.09;;;15.57;61.67
47218;BME280;47282;53.362;-2.222;2022-08-04T05:40:18;100531.16;;;15.66;61.61
47218;BME280;47282;53.362;-2.222;2022-08-04T05:42:47;100531.71;;;15.61;61.39
47218;BME280;47282;53.362;-2.222;2022-08-04T05:45:18;100532.55;;;15.74;61.16
47218;BME280;47282;53.362;-2.222;2022-08-04T05:47:47;100534.03;;;15.53;61.08
47218;BME280;47282;53.362;-2.222;2022-08-04T05:50:15;100537.43;;;15.57;61.05
47218;BME280;47282;53.362;-2.222;2022-08-04T05:52:45;100542.35;;;15.66;60.93
47218;BME280;47282;53.362;-2.222;2022-08-04T05:55:15;100545.64;;;15.65;60.96
47218;BME280;47282;53.362;-2.222;2022-08-04T05:57:44;100551.92;;;15.99;61.16
47218;BME280;47282;53.362;-2.222;2022-08-04T06:00:15;100560.02;;;15.47;61.21
47218;BME280;47282;53.362;-2.222;2022-08-04T06:02:44;100559.95;;;15.86;61.00
47218;BME280;47282;53.362;-2.222;2022-08-04T06:05:14;100566.32;;;15.76;60.73
47218;BME280;47282;53.362;-2.222;2022-08-04T06:07:43;100568.03;;;15.69;60.81
47218;BME280;47282;53.362;-2.222;2022-08-04T06:10:12;100570.00;;;15.56;60.94
47218;BME280;47282;53.362;-2.222;2022-08-04T06:12:45;100570.90;;;15.81;60.89
47218;BME280;47282;53.362;-2.222;2022-08-04T06:15:18;100578.98;;;15.87;60.55
47218;BME280;47282;53.362;-2.222;2022-08-04T06:17:49;100583.07;;;16.18;60.04
47218;BME280;47282;53.362;-2.222;2022-08-04T06:20:19;100589.63;;;15.94;59.35
47218;BME280;47282;53.362;-2.222;2022-08-04T06:22:52;100591.59;;;16.31;58.60
47218;BME280;47282;53.362;-2.222;2022-08-04T06:25:25;100593.48;;;16.64;58.00
47218;BME280;47282;53.362;-2.222;2022-08-04T06:27:55;100593.65;;;16.87;57.48
47218;BME280;47282;53.362;-2.222;2022-08-04T06:30:25;100601.50;;;16.82;57.13
47218;BME280;47282;53.362;-2.222;2022-08-04T06:32:54;100609.11;;;17.03;56.62
47218;BME280;47282;53.362;-2.222;2022-08-04T06:35:24;100611.61;;;17.25;56.20
47218;BME280;47282;53.362;-2.222;2022-08-04T06:37:54;100616.84;;;17.57;55.68
47218;BME280;47282;53.362;-2.222;2022-08-04T06:40:24;100619.57;;;17.92;55.10
47218;BME280;47282;53.362;-2.222;2022-08-04T06:42:55;100618.01;;;18.36;54.44
47218;BME280;47282;53.362;-2.222;2022-08-04T06:45:24;100621.91;;;18.35;54.00
47218;BME280;47282;53.362;-2.222;2022-08-04T06:47:52;100624.40;;;17.95;54.20
47218;BME280;47282;53.362;-2.222;2022-08-04T06:50:22;100626.15;;;18.12;54.28
47218;BME280;47282;53.362;-2.222;2022-08-04T06:52:51;100629.72;;;17.92;54.49
47218;BME280;47282;53.362;-2.222;2022-08-04T06:55:19;100631.29;;;17.80;54.59
47218;BME280;47282;53.362;-2.222;2022-08-04T06:57:48;100633.09;;;17.76;54.43
47218;BME280;47282;53.362;-2.222;2022-08-04T07:01:14;100634.05;;;17.74;53.55
47218;BME280;47282;53.362;-2.222;2022-08-04T07:03:43;100633.52;;;17.76;53.01
47218;BME280;47282;53.362;-2.222;2022-08-04T07:06:12;100637.78;;;18.34;51.53
47218;BME280;47282;53.362;-2.222;2022-08-04T07:08:41;100642.38;;;19.72;49.40
47218;BME280;47282;53.362;-2.222;2022-08-04T07:11:10;100645.31;;;19.52;49.44
47218;BME280;47282;53.362;-2.222;2022-08-04T07:13:39;100647.20;;;19.64;49.22
47218;BME280;47282;53.362;-2.222;2022-08-04T07:16:09;100647.47;;;20.45;47.26
47218;BME280;47282;53.362;-2.222;2022-08-04T07:18:40;100657.58;;;27.33;37.75
47218;BME280;47282;53.362;-2.222;2022-08-04T07:21:09;100646.77;;;25.68;39.17
47218;BME280;47282;53.362;-2.222;2022-08-04T07:23:38;100658.56;;;26.27;38.83
47218;BME280;47282;53.362;-2.222;2022-08-04T07:26:06;100668.09;;;34.91;29.16
47218;BME280;47282;53.362;-2.222;2022-08-04T07:28:34;100674.68;;;40.16;25.17
47218;BME280;47282;53.362;-2.222;2022-08-04T07:31:04;100659.93;;;32.14;31.51
47218;BME280;47282;53.362;-2.222;2022-08-04T07:33:33;100677.19;;;39.81;23.83
47218;BME280;47282;53.362;-2.222;2022-08-04T07:36:02;100677.50;;;39.78;23.06
47218;BME280;47282;53.362;-2.222;2022-08-04T07:38:30;100680.03;;;43.91;19.50
47218;BME280;47282;53.362;-2.222;2022-08-04T07:40:59;100680.85;;;45.74;18.12
47218;BME280;47282;53.362;-2.222;2022-08-04T07:43:27;100681.91;;;46.89;16.47
47218;BME280;47282;53.362;-2.222;2022-08-04T07:45:57;100675.77;;;48.24;15.67
47218;BME280;47282;53.362;-2.222;2022-08-04T07:48:25;100670.67;;;49.16;15.44
47218;BME280;47282;53.362;-2.222;2022-08-04T07:50:53;100672.39;;;46.15;17.13
47218;BME280;47282;53.362;-2.222;2022-08-04T07:53:22;100675.09;;;46.59;16.85
47218;BME280;47282;53.362;-2.222;2022-08-04T07:55:52;100675.14;;;48.19;15.19
47218;BME280;47282;53.362;-2.222;2022-08-04T07:58:20;100670.67;;;49.86;13.98
47218;BME280;47282;53.362;-2.222;2022-08-04T08:00:48;100678.75;;;50.97;12.55
47218;BME280;47282;53.362;-2.222;2022-08-04T08:03:18;100683.09;;;51.32;11.90
47218;BME280;47282;53.362;-2.222;2022-08-04T08:05:46;100688.73;;;52.47;11.71
47218;BME280;47282;53.362;-2.222;2022-08-04T08:08:20;100688.40;;;53.26;10.72
47218;BME280;47282;53.362;-2.222;2022-08-04T08:10:48;100685.52;;;53.48;10.28
47218;BME280;47282;53.362;-2.222;2022-08-04T08:13:17;100687.87;;;54.11;9.78
47218;BME280;47282;53.362;-2.222;2022-08-04T08:15:47;100687.39;;;54.72;9.49
47218;BME280;47282;53.362;-2.222;2022-08-04T08:18:15;100690.41;;;54.68;9.18
47218;BME280;47282;53.362;-2.222;2022-08-04T08:20:44;100687.00;;;55.09;8.88
47218;BME280;47282;53.362;-2.222;2022-08-04T08:23:13;100694.02;;;55.54;8.54
47218;BME280;47282;53.362;-2.222;2022-08-04T08:25:41;100691.82;;;55.78;7.96
47218;BME280;47282;53.362;-2.222;2022-08-04T08:28:10;100696.41;;;55.95;7.92
47218;BME280;47282;53.362;-2.222;2022-08-04T08:30:38;100696.09;;;55.82;7.65
47218;BME280;47282;53.362;-2.222;2022-08-04T08:33:08;100695.87;;;56.01;7.50
47218;BME280;47282;53.362;-2.222;2022-08-04T08:35:47;100697.15;;;56.31;7.45
47218;BME280;47282;53.362;-2.222;2022-08-04T08:38:26;100698.80;;;57.02;6.93
47218;BME280;47282;53.362;-2.222;2022-08-04T08:41:03;100680.65;;;49.25;10.18
47218;BME280;47282;53.362;-2.222;2022-08-04T08:43:53;100672.24;;;46.02;11.35
47218;BME280;47282;53.362;-2.222;2022-08-04T08:46:42;100688.77;;;50.68;9.07
47218;BME280;47282;53.362;-2.222;2022-08-04T08:49:31;100694.24;;;52.91;8.18
47218;BME280;47282;53.362;-2.222;2022-08-04T08:52:22;100688.47;;;52.31;8.60
47218;BME280;47282;53.362;-2.222;2022-08-04T08:55:00;100676.33;;;46.32;10.93
47218;BME280;47282;53.362;-2.222;2022-08-04T08:57:43;100677.68;;;41.18;13.40
47218;BME280;47282;53.362;-2.222;2022-08-04T09:00:17;100682.06;;;37.48;15.35
47218;BME280;47282;53.362;-2.222;2022-08-04T09:03:58;100683.46;;;37.55;14.94
47218;BME280;47282;53.362;-2.222;2022-08-04T09:06:57;100691.36;;;45.61;10.93
47218;BME280;47282;53.362;-2.222;2022-08-04T09:09:50;100694.77;;;48.80;9.92
47218;BME280;47282;53.362;-2.222;2022-08-04T09:12:25;100699.41;;;51.65;8.66
47218;BME280;47282;53.362;-2.222;2022-08-04T09:15:02;100702.89;;;52.95;7.76
47218;BME280;47282;53.362;-2.222;2022-08-04T09:17:39;100706.61;;;54.11;7.37
47218;BME280;47282;53.362;-2.222;2022-08-04T09:20:17;100702.21;;;55.02;7.04
47218;BME280;47282;53.362;-2.222;2022-08-04T09:22:53;100697.02;;;52.01;8.21
47218;BME280;47282;53.362;-2.222;2022-08-04T09:25:27;100705.49;;;54.99;7.09
47218;BME280;47282;53.362;-2.222;2022-08-04T09:28:01;100689.61;;;48.11;9.68
47218;BME280;47282;53.362;-2.222;2022-08-04T09:30:37;100697.35;;;51.60;8.22
47218;BME280;47282;53.362;-2.222;2022-08-04T09:33:17;100693.56;;;53.50;7.24
47218;BME280;47282;53.362;-2.222;2022-08-04T09:35:56;100697.82;;;55.00;6.48
47218;BME280;47282;53.362;-2.222;2022-08-04T09:38:32;100691.61;;;54.96;6.88
47218;BME280;47282;53.362;-2.222;2022-08-04T09:41:15;100681.74;;;48.32;9.21
47218;BME280;47282;53.362;-2.222;2022-08-04T09:43:52;100678.36;;;42.92;11.39
47218;BME280;47282;53.362;-2.222;2022-08-04T09:46:32;100683.31;;;39.76;12.89
47218;BME280;47282;53.362;-2.222;2022-08-04T09:49:06;100678.59;;;36.53;14.70
47218;BME280;47282;53.362;-2.222;2022-08-04T09:51:48;100691.75;;;35.14;15.47
47218;BME280;47282;53.362;-2.222;2022-08-04T09:54:22;100706.04;;;41.03;12.75
47218;BME280;47282;53.362;-2.222;2022-08-04T09:56:57;100709.21;;;44.18;11.33
47218;BME280;47282;53.362;-2.222;2022-08-04T09:59:42;100716.68;;;46.64;10.08
47218;BME280;47282;53.362;-2.222;2022-08-04T10:02:12;100714.07;;;48.73;9.10
47218;BME280;47282;53.362;-2.222;2022-08-04T10:04:43;100707.30;;;45.23;10.64
47218;BME280;47282;53.362;-2.222;2022-08-04T10:07:23;100704.97;;;42.72;11.77
47218;BME280;47282;53.362;-2.222;2022-08-04T10:10:09;100713.14;;;40.33;13.08
47218;BME280;47282;53.362;-2.222;2022-08-04T10:12:56;100711.55;;;38.21;14.32
47218;BME280;47282;53.362;-2.222;2022-08-04T10:15:33;100723.87;;;35.95;15.54
47218;BME280;47282;53.362;-2.222;2022-08-04T10:18:13;100723.07;;;33.77;17.02
47218;BME280;47282;53.362;-2.222;2022-08-04T10:21:00;100720.58;;;31.46;18.59
47218;BME280;47282;53.362;-2.222;2022-08-04T10:23:39;100727.40;;;29.84;20.20
47218;BME280;47282;53.362;-2.222;2022-08-04T10:26:21;100738.27;;;28.20;22.01
47218;BME280;47282;53.362;-2.222;2022-08-04T10:28:55;100736.36;;;26.87;23.57
47218;BME280;47282;53.362;-2.222;2022-08-04T10:31:29;100745.20;;;26.23;24.74
47218;BME280;47282;53.362;-2.222;2022-08-04T10:34:04;100753.28;;;25.24;25.68
47218;BME280;47282;53.362;-2.222;2022-08-04T10:36:43;100753.34;;;25.31;26.60
47218;BME280;47282;53.362;-2.222;2022-08-04T10:39:21;100759.40;;;25.01;26.74
47218;BME280;47282;53.362;-2.222;2022-08-04T10:41:59;100763.85;;;25.78;26.88
47218;BME280;47282;53.362;-2.222;2022-08-04T10:44:36;100763.79;;;26.14;26.53
47218;BME280;47282;53.362;-2.222;2022-08-04T10:47:15;100762.62;;;29.74;23.94
47218;BME280;47282;53.362;-2.222;2022-08-04T10:49:47;100770.24;;;34.49;20.55
47218;BME280;47282;53.362;-2.222;2022-08-04T10:52:23;100767.47;;;36.22;19.03
47218;BME280;47282;53.362;-2.222;2022-08-04T10:54:59;100763.94;;;34.29;20.47
47218;BME280;47282;53.362;-2.222;2022-08-04T10:57:35;100762.64;;;31.79;22.26
47218;BME280;47282;53.362;-2.222;2022-08-04T11:00:08;100766.25;;;29.59;23.89
47218;BME280;47282;53.362;-2.222;2022-08-04T11:02:42;100768.02;;;28.21;24.59
47218;BME280;47282;53.362;-2.222;2022-08-04T11:05:19;100776.13;;;27.52;24.88
47218;BME280;47282;53.362;-2.222;2022-08-04T11:07:51;100778.23;;;26.85;25.10
47218;BME280;47282;53.362;-2.222;2022-08-04T11:10:23;100779.57;;;26.81;25.24
47218;BME280;47282;53.362;-2.222;2022-08-04T11:12:56;100784.93;;;27.41;24.92
47218;BME280;47282;53.362;-2.222;2022-08-04T11:15:30;100799.81;;;29.63;23.14
47218;BME280;47282;53.362;-2.222;2022-08-04T11:18:05;100808.23;;;32.86;20.81
47218;BME280;47282;53.362;-2.222;2022-08-04T11:20:41;100815.75;;;35.52;18.82
47218;BME280;47282;53.362;-2.222;2022-08-04T11:23:13;100822.63;;;37.30;17.46
47218;BME280;47282;53.362;-2.222;2022-08-04T11:25:50;100821.73;;;38.62;16.61
47218;BME280;47282;53.362;-2.222;2022-08-04T11:28:27;100839.13;;;38.81;16.08
47218;BME280;47282;53.362;-2.222;2022-08-04T11:31:03;100827.73;;;38.96;16.16
47218;BME280;47282;53.362;-2.222;2022-08-04T11:33:38;100844.07;;;37.34;16.99
47218;BME280;47282;53.362;-2.222;2022-08-04T11:36:16;100835.18;;;39.51;15.89
47218;BME280;47282;53.362;-2.222;2022-08-04T11:38:52;100817.08;;;38.25;16.14
47218;BME280;47282;53.362;-2.222;2022-08-04T11:41:33;100808.47;;;34.78;17.64
47218;BME280;47282;53.362;-2.222;2022-08-04T11:44:05;100823.52;;;38.19;15.63
47218;BME280;47282;53.362;-2.222;2022-08-04T11:46:40;100819.47;;;39.39;14.98
47218;BME280;47282;53.362;-2.222;2022-08-04T11:49:15;100824.96;;;40.25;14.35
47218;BME280;47282;53.362;-2.222;2022-08-04T11:51:49;100818.97;;;40.13;14.55
47218;BME280;47282;53.362;-2.222;2022-08-04T11:54:19;100825.61;;;39.88;14.58
47218;BME280;47282;53.362;-2.222;2022-08-04T11:56:48;100830.36;;;39.08;14.77
47218;BME280;47282;53.362;-2.222;2022-08-04T11:59:18;100827.84;;;40.28;13.67
47218;BME280;47282;53.362;-2.222;2022-08-04T12:02:04;100821.30;;;40.58;13.63
47218;BME280;47282;53.362;-2.222;2022-08-04T12:04:42;100820.11;;;40.21;13.50
47218;BME280;47282;53.362;-2.222;2022-08-04T12:07:19;100822.19;;;40.56;13.75
47218;BME280;47282;53.362;-2.222;2022-08-04T12:09:57;100824.74;;;40.94;13.44
47218;BME280;47282;53.362;-2.222;2022-08-04T12:12:36;100827.09;;;40.48;13.34
47218;BME280;47282;53.362;-2.222;2022-08-04T12:15:15;100830.89;;;40.43;13.07
47218;BME280;47282;53.362;-2.222;2022-08-04T12:17:51;100830.89;;;38.40;14.34
47218;BME280;47282;53.362;-2.222;2022-08-04T12:20:26;100840.57;;;40.08;13.25
47218;BME280;47282;53.362;-2.222;2022-08-04T12:22:56;100846.99;;;40.14;12.78
47218;BME280;47282;53.362;-2.222;2022-08-04T12:25:30;100846.15;;;39.38;12.98
47218;BME280;47282;53.362;-2.222;2022-08-04T12:28:04;100852.20;;;37.94;13.81
47218;BME280;47282;53.362;-2.222;2022-08-04T12:30:35;100845.12;;;36.14;14.82
47218;BME280;47282;53.362;-2.222;2022-08-04T12:33:11;100848.80;;;36.83;14.71
47218;BME280;47282;53.362;-2.222;2022-08-04T12:35:46;100855.62;;;37.09;14.56
47218;BME280;47282;53.362;-2.222;2022-08-04T12:38:15;100861.38;;;38.30;14.24
47218;BME280;47282;53.362;-2.222;2022-08-04T12:40:46;100864.66;;;38.89;14.02
47218;BME280;47282;53.362;-2.222;2022-08-04T12:43:21;100867.08;;;39.01;13.91
47218;BME280;47282;53.362;-2.222;2022-08-04T12:45:53;100875.25;;;38.84;14.11
47218;BME280;47282;53.362;-2.222;2022-08-04T12:48:23;100878.08;;;38.10;14.41
47218;BME280;47282;53.362;-2.222;2022-08-04T12:50:54;100879.89;;;38.19;14.30
47218;BME280;47282;53.362;-2.222;2022-08-04T12:53:27;100880.80;;;36.80;14.91
47218;BME280;47282;53.362;-2.222;2022-08-04T12:55:57;100871.99;;;35.52;15.72
47218;BME280;47282;53.362;-2.222;2022-08-04T12:58:29;100870.87;;;35.39;15.75
47218;BME280;47282;53.362;-2.222;2022-08-04T13:01:03;100878.40;;;34.50;16.41
47218;BME280;47282;53.362;-2.222;2022-08-04T13:03:38;100880.22;;;33.99;16.87
47218;BME280;47282;53.362;-2.222;2022-08-04T13:06:11;100880.99;;;33.92;17.04
47218;BME280;47282;53.362;-2.222;2022-08-04T13:08:44;100892.43;;;34.04;17.38
47218;BME280;47282;53.362;-2.222;2022-08-04T13:11:14;100885.83;;;33.27;17.77
47218;BME280;47282;53.362;-2.222;2022-08-04T13:13:43;100877.24;;;33.09;18.13
47218;BME280;47282;53.362;-2.222;2022-08-04T13:16:12;100887.19;;;32.68;18.82
47218;BME280;47282;53.362;-2.222;2022-08-04T13:18:46;100885.76;;;31.81;19.03
47218;BME280;47282;53.362;-2.222;2022-08-04T13:21:17;100892.01;;;32.18;19.16
47218;BME280;47282;53.362;-2.222;2022-08-04T13:23:48;100887.26;;;32.13;19.23
47218;BME280;47282;53.362;-2.222;2022-08-04T13:26:23;100884.00;;;31.58;19.37
47218;BME280;47282;53.362;-2.222;2022-08-04T13:28:53;100884.03;;;31.14;19.78
47218;BME280;47282;53.362;-2.222;2022-08-04T13:31:27;100887.34;;;30.94;19.96
47218;BME280;47282;53.362;-2.222;2022-08-04T13:34:03;100888.78;;;30.38;20.08
47218;BME280;47282;53.362;-2.222;2022-08-04T13:36:31;100884.02;;;30.00;20.16